KTRI

Tri-Cities Regional Airport

Airport
ICAO code
KTRI
Summary
ICAO Region
NAM
ICAO Territory
Location

Blountville, Tennessee,

Coordinates
36° 28' 52" N , 82° 24' 28" W
KCC
Airport WX
Cumulonimbus
Metar
KTRI 151653Z 00000KT 10SM SCT042 SCT049 29/17 A3009 RMK AO2 SLP160 T02940172 $

Description

Tri-Cities Regional Airport is a public use airport adjacent to Blountville, in Sullivan County, Tennessee. It primarily serves the Tri-Cities area of Bristol, Kingsport and Johnson City in Northeast Tennessee and Southwest Virginia.

Climatology

Humid “subtropical” climate (Köppen climate classification Cfa) - characterized by hot, humid summers and cool winters. Significant amounts of precipitation occur in all seasons in most areas. Winter rainfall (and sometimes snowfall) is associated with large storms that the westerlies steer from west to east. Most summer rainfall occurs during thunderstorms and occasional tropical storms (hurricanes).

Runways

Designator Length Width Surface Rops
9/27 1354 46 ASP Yes/Yes
5/23 2448 46 ASP Yes/Yes

Airport map

Aerial View

SKYbrary Partners:

Safety knowledge contributed by: